Airfield :
LOGIN :

Register | Disclaimer

   EN    FR    IT 

 










Legend :    VFR   Marginal VFR   IFR   Intensive IFR   Very Intensive IFR
Visi :
Ceiling :
>= 8 km
>= 3000ft
5 to 8 km
1000 to 3000 ft
1500m to 5 km
500 to 1000 ft
800 to 1500m
200 to 500 ft
< 800m
< 200 ft
Symbols :   Thunderstorms  Fog  Heavy snow  Heavy precipitations  Wind > 20 kt
SIGMETs :     Misc.  Thunderstorms  Icing  Turbulence  Mountain Waves  Volcanic Ashes







- Airport Elevation : 17 ft
- IATA code : DND
- Download approach charts


EGPN - Dundee

CURRENT METAR :
  • 191250Z VRB05KT 9999 SCT015 BKN022 16/14 Q1014

EXPIRED METARs :
  • 191220Z 06005KT 290V100 9999 SCT012 BKN020 16/14 Q1014
  • 191150Z 07005KT 340V130 9999 FEW012 BKN030 16/13 Q1014
  • 191120Z VRB06KT 9999 FEW010 BKN030 16/14 Q1013
  • 191050Z 07007KT 300V110 9999 VCSH FEW008 BKN023 15/13 Q1013
  • 191020Z 05006KT 310V120 9999 VCSH FEW008 BKN023 15/14 Q1013

TAF TAF EGPN
Valid from the 19 at 12:00 until the 19 at 20:00 UTC


191103Z 1912/1920 03007KT 9999 SCT025
TEMPO 1912/1920 BKN010
PROB40
TEMPO 1912/1916 6000 -RADZ
No reported NOTAMs for that airfield.



MET'MAP, your aeronautical weather chart ! - Copyright ORBIFLY December 2007 - Disclaimer

ORBIFLY MET'MAP TEAM :

Programming & Development : Alexandra Zaïnal
Concept & Development : Baudouin d'Aumeries
Co-Development & Prog : Marc-Olivier Méhu
Technical & hardware support : Manuel Goepfert

Contact : metmap@orbifly.com




SOURCES & CREDITS :

   NOAA